createdAt,value
2018-06-01T00:00:28.724Z,978.5
2018-06-01T00:01:29.933Z,978.4
2018-06-01T00:02:31.109Z,978.5
2018-06-01T00:03:32.265Z,978.7
2018-06-01T00:04:33.460Z,978.8
2018-06-01T00:05:34.630Z,978.7
2018-06-01T00:06:37.191Z,978.6
2018-06-01T00:07:38.437Z,978.6
2018-06-01T00:08:39.631Z,978.4
2018-06-01T00:09:40.786Z,978.4
2018-06-01T00:10:41.962Z,978.5
2018-06-01T00:11:43.171Z,978.5
2018-06-01T00:12:44.323Z,978.4
2018-06-01T00:13:45.457Z,978.3
2018-06-01T00:14:46.626Z,978.3
2018-06-01T00:15:47.784Z,978.4
2018-06-01T00:16:49.047Z,978.5
2018-06-01T00:17:50.203Z,978.6
2018-06-01T00:18:51.368Z,978.6
2018-06-01T00:19:52.563Z,978.6
2018-06-01T00:20:53.773Z,978.6
2018-06-01T00:21:55.231Z,978.6
2018-06-01T00:22:56.385Z,978.6
2018-06-01T00:23:57.625Z,978.5
2018-06-01T00:24:58.833Z,978.5
2018-06-01T00:26:00.069Z,978.3
2018-06-01T00:27:01.387Z,978.4
2018-06-01T00:28:02.656Z,978.4
2018-06-01T00:29:03.863Z,978.3
2018-06-01T00:30:05.120Z,978.3
2018-06-01T00:31:21.826Z,978.4
2018-06-01T00:32:23.111Z,978.6
2018-06-01T00:33:24.281Z,978.5
2018-06-01T00:34:25.454Z,978.4
2018-06-01T00:35:26.635Z,978.5
2018-06-01T00:36:27.808Z,978.2
2018-06-01T00:37:29.015Z,978.5
2018-06-01T00:38:30.161Z,978.5
2018-06-01T00:39:31.338Z,978.5
2018-06-01T00:40:32.530Z,978.5
2018-06-01T00:41:33.732Z,978.4
2018-06-01T00:42:38.796Z,978.5
2018-06-01T00:43:39.967Z,978.7
2018-06-01T00:44:41.243Z,978.7
2018-06-01T00:45:42.410Z,978.7
2018-06-01T00:46:43.579Z,978.7
2018-06-01T00:47:44.769Z,978.8
2018-06-01T00:48:45.946Z,978.8
2018-06-01T00:49:47.106Z,978.8
2018-06-01T00:50:48.269Z,978.8
2018-06-01T00:51:49.442Z,978.7
2018-06-01T00:52:50.789Z,978.7
2018-06-01T00:53:51.965Z,978.5
2018-06-01T00:54:53.256Z,978.5
2018-06-01T00:55:54.468Z,978.6
2018-06-01T00:56:55.654Z,978.3
2018-06-01T00:57:56.864Z,978.4
2018-06-01T00:58:58.035Z,978.4
2018-06-01T00:59:59.199Z,978.4
2018-06-01T01:01:00.340Z,978.4
2018-06-01T01:02:01.594Z,978.5
2018-06-01T01:03:02.791Z,978.5
2018-06-01T01:04:03.983Z,978.6
2018-06-01T01:05:05.134Z,978.7
2018-06-01T01:06:06.965Z,978.5
2018-06-01T01:07:08.145Z,978.5
2018-06-01T01:08:09.384Z,978.5
2018-06-01T01:09:10.520Z,978.5
2018-06-01T01:10:11.682Z,978.7
2018-06-01T01:11:13.242Z,978.8
2018-06-01T01:12:14.451Z,978.8
2018-06-01T01:13:15.624Z,978.9
2018-06-01T01:14:16.817Z,978.9
2018-06-01T01:15:17.986Z,978.8
2018-06-01T01:16:19.553Z,978.9
2018-06-01T01:17:22.208Z,978.7
2018-06-01T01:18:23.429Z,978.5
2018-06-01T01:19:24.601Z,978.6
2018-06-01T01:20:25.771Z,978.6
2018-06-01T01:21:26.938Z,978.6
2018-06-01T01:22:28.109Z,978.6
2018-06-01T01:23:29.346Z,978.6
2018-06-01T01:24:30.531Z,978.6
2018-06-01T01:25:31.686Z,978.7
2018-06-01T01:26:32.852Z,978.8
2018-06-01T01:27:34.046Z,978.8
2018-06-01T01:28:35.264Z,978.7
2018-06-01T01:29:36.422Z,978.6
2018-06-01T01:30:37.603Z,978.7
2018-06-01T01:31:38.814Z,978.8
2018-06-01T01:32:39.986Z,978.8
2018-06-01T01:33:41.181Z,978.8
2018-06-01T01:34:42.366Z,978.7
2018-06-01T01:35:43.546Z,978.8
2018-06-01T01:36:44.766Z,978.9
2018-06-01T01:37:45.920Z,978.9
2018-06-01T01:38:47.127Z,978.9
2018-06-01T01:39:48.262Z,978.9
2018-06-01T01:40:49.427Z,978.7
2018-06-01T01:41:50.563Z,978.7
2018-06-01T01:42:51.731Z,978.8
2018-06-01T01:43:52.942Z,978.8
2018-06-01T01:44:54.083Z,978.6
2018-06-01T01:45:55.253Z,978.6
2018-06-01T01:46:56.410Z,978.7
2018-06-01T01:47:57.563Z,978.7
2018-06-01T01:48:58.769Z,978.8
2018-06-01T01:49:59.906Z,978.9
2018-06-01T01:51:01.085Z,979.1
2018-06-01T01:52:17.907Z,979.1
2018-06-01T01:53:19.096Z,979.1
2018-06-01T01:54:20.485Z,979.1
2018-06-01T01:55:21.673Z,979.1
2018-06-01T01:56:22.839Z,979
2018-06-01T01:57:25.242Z,979
2018-06-01T01:58:26.440Z,978.9
2018-06-01T01:59:27.809Z,979
2018-06-01T02:00:28.975Z,978.9
2018-06-01T02:01:30.132Z,978.9
2018-06-01T02:02:31.323Z,979
2018-06-01T02:03:36.528Z,979.1
2018-06-01T02:04:37.723Z,979
2018-06-01T02:05:38.930Z,979
2018-06-01T02:06:40.083Z,979.1
2018-06-01T02:07:41.289Z,979
2018-06-01T02:08:42.464Z,979.1
2018-06-01T02:09:43.905Z,979.2
2018-06-01T02:10:45.092Z,979.1
2018-06-01T02:11:47.000Z,979.2
2018-06-01T02:12:48.141Z,979.2
2018-06-01T02:13:49.285Z,979.2
2018-06-01T02:14:50.775Z,979.1
2018-06-01T02:15:52.008Z,978.8
2018-06-01T02:16:53.232Z,978.7
2018-06-01T02:17:54.411Z,978.7
2018-06-01T02:18:55.618Z,978.7
2018-06-01T02:19:56.930Z,978.7
2018-06-01T02:20:58.096Z,978.9
2018-06-01T02:21:59.278Z,979
2018-06-01T02:23:00.441Z,979.1
2018-06-01T02:24:01.638Z,979.1
2018-06-01T02:25:02.878Z,979
2018-06-01T02:26:04.064Z,978.9
2018-06-01T02:27:05.282Z,978.9
2018-06-01T02:28:07.571Z,978.9
2018-06-01T02:29:08.723Z,978.8
2018-06-01T02:30:09.940Z,978.9
2018-06-01T02:31:11.088Z,978.9
2018-06-01T02:32:12.270Z,979
2018-06-01T02:33:14.722Z,979
2018-06-01T02:34:15.890Z,978.9
2018-06-01T02:35:17.101Z,978.7
2018-06-01T02:36:18.273Z,978.7
2018-06-01T02:37:19.428Z,978.8
2018-06-01T02:38:20.667Z,978.9
2018-06-01T02:39:21.852Z,979
2018-06-01T02:40:23.065Z,979
2018-06-01T02:41:24.234Z,978.7
2018-06-01T02:42:25.408Z,978.6
2018-06-01T02:43:26.579Z,978.7
2018-06-01T02:44:27.783Z,978.6
2018-06-01T02:45:28.988Z,978.6
2018-06-01T02:46:30.178Z,978.7
2018-06-01T02:47:31.507Z,978.8
2018-06-01T02:48:32.685Z,978.9
2018-06-01T02:49:33.870Z,979
2018-06-01T02:50:35.121Z,979
2018-06-01T02:51:36.280Z,979.1
2018-06-01T02:52:37.462Z,978.9
2018-06-01T02:53:38.652Z,978.6
2018-06-01T02:54:42.356Z,978.5
2018-06-01T02:55:43.599Z,978.6
2018-06-01T02:56:44.749Z,978.7
2018-06-01T02:57:45.927Z,978.6
2018-06-01T02:58:47.112Z,978.7
2018-06-01T02:59:48.292Z,978.9
2018-06-01T03:00:49.484Z,979
2018-06-01T03:01:50.716Z,979.1
2018-06-01T03:02:51.893Z,979.1
2018-06-01T03:03:53.083Z,979
2018-06-01T03:04:54.332Z,979
2018-06-01T03:05:55.556Z,978.9
2018-06-01T03:06:56.707Z,979.1
2018-06-01T03:08:58.986Z,979.1
2018-06-01T03:10:00.171Z,979.2
2018-06-01T03:11:01.373Z,979.1
2018-06-01T03:12:02.535Z,978.9
2018-06-01T03:13:03.695Z,978.7
2018-06-01T03:14:04.881Z,978.5
2018-06-01T03:15:06.090Z,978.6
2018-06-01T03:16:07.317Z,978.5
2018-06-01T03:17:08.506Z,978.5
2018-06-01T03:18:09.697Z,978.5
2018-06-01T03:19:10.837Z,978.5
2018-06-01T03:20:12.031Z,978.5
2018-06-01T03:21:13.246Z,978.6
2018-06-01T03:22:14.448Z,978.6
2018-06-01T03:23:15.606Z,978.7
2018-06-01T03:24:16.853Z,978.6
2018-06-01T03:25:18.010Z,978.8
2018-06-01T03:26:19.272Z,978.8
2018-06-01T03:27:20.422Z,978.7
2018-06-01T03:28:26.758Z,978.7
2018-06-01T03:29:28.056Z,978.7
2018-06-01T03:30:29.239Z,978.6
2018-06-01T03:31:30.440Z,978.7
2018-06-01T03:32:31.626Z,978.7
2018-06-01T03:33:32.842Z,978.9
2018-06-01T03:34:34.043Z,979
2018-06-01T03:35:35.204Z,979
2018-06-01T03:36:45.480Z,979.1
2018-06-01T03:37:46.625Z,979.1
2018-06-01T03:38:47.784Z,979.3
2018-06-01T03:39:48.957Z,979.3
2018-06-01T03:40:50.115Z,979.2
2018-06-01T03:41:51.478Z,979.4
2018-06-01T03:42:52.652Z,979.4
2018-06-01T03:43:53.807Z,979.5
2018-06-01T03:44:55.070Z,979.5
2018-06-01T03:45:56.252Z,979.5
2018-06-01T03:46:57.490Z,979.4
2018-06-01T03:47:58.660Z,979.3
2018-06-01T03:48:59.835Z,979.3
2018-06-01T03:50:01.046Z,979.4
2018-06-01T03:51:02.215Z,979.2
2018-06-01T03:52:03.413Z,979.1
2018-06-01T03:53:06.427Z,979.1
2018-06-01T03:54:08.040Z,979
2018-06-01T03:55:09.181Z,979.1
2018-06-01T03:56:10.370Z,979.1
2018-06-01T03:57:11.573Z,979.1
2018-06-01T03:58:12.730Z,979.2
2018-06-01T03:59:13.874Z,979.2
2018-06-01T04:00:15.075Z,979.2
2018-06-01T04:01:16.241Z,979.3
2018-06-01T04:02:17.483Z,979.4
2018-06-01T04:03:18.667Z,979.5
2018-06-01T04:04:19.880Z,979.5
2018-06-01T04:05:21.053Z,979.3
2018-06-01T04:06:22.220Z,979.4
2018-06-01T04:07:23.426Z,979.4
2018-06-01T04:08:24.628Z,979.3
2018-06-01T04:09:25.788Z,979.3
2018-06-01T04:10:26.968Z,979.4
2018-06-01T04:11:28.133Z,979.4
2018-06-01T04:12:29.428Z,979.2
2018-06-01T04:13:30.636Z,979.3
2018-06-01T04:14:31.790Z,979
2018-06-01T04:15:32.942Z,978.9
2018-06-01T04:16:34.086Z,978.8
2018-06-01T04:17:35.287Z,978.9
2018-06-01T04:18:36.584Z,979.3
2018-06-01T04:19:37.762Z,979.3
2018-06-01T04:20:38.926Z,979.3
2018-06-01T04:21:40.137Z,979.3
2018-06-01T04:22:41.348Z,978.8
2018-06-01T04:23:42.498Z,979.2
2018-06-01T04:24:43.665Z,979.5
2018-06-01T04:25:44.830Z,979.5
2018-06-01T04:26:46.011Z,979.4
2018-06-01T04:27:47.385Z,979.4
2018-06-01T04:28:48.468Z,979.4
2018-06-01T04:29:49.629Z,979.2
2018-06-01T04:30:50.816Z,979.3
2018-06-01T04:31:51.984Z,979.6
2018-06-01T04:32:53.223Z,979.6
2018-06-01T04:33:54.387Z,979.6
2018-06-01T04:34:55.635Z,979.6
2018-06-01T04:35:56.938Z,979.6
2018-06-01T04:36:58.103Z,979.5
2018-06-01T04:37:59.407Z,979.5
2018-06-01T04:39:00.678Z,979.3
2018-06-01T04:40:01.944Z,979.3
2018-06-01T04:41:03.147Z,979.3
2018-06-01T04:42:04.326Z,979.5
2018-06-01T04:43:05.563Z,979.4
2018-06-01T04:44:06.801Z,979.7
2018-06-01T04:45:07.994Z,979.2
2018-06-01T04:46:09.164Z,979.1
2018-06-01T04:47:14.783Z,979.6
2018-06-01T04:48:15.981Z,979.9
2018-06-01T04:49:17.225Z,979.9
2018-06-01T04:50:18.365Z,979.9
2018-06-01T04:51:19.567Z,980
2018-06-01T04:52:20.761Z,980
2018-06-01T04:53:21.968Z,980
2018-06-01T04:54:23.130Z,980.1
2018-06-01T04:55:24.290Z,979.9
2018-06-01T04:56:25.483Z,979.9
2018-06-01T04:57:34.620Z,980.1
2018-06-01T04:58:35.899Z,980.1
2018-06-01T04:59:37.119Z,980.2
2018-06-01T05:00:38.276Z,980.2
2018-06-01T05:02:02.195Z,980.2
2018-06-01T05:03:03.339Z,980.1
2018-06-01T05:04:04.554Z,980.3
2018-06-01T05:05:05.761Z,980.3
2018-06-01T05:06:07.026Z,980.4
2018-06-01T05:07:09.788Z,980.4
2018-06-01T05:08:10.968Z,980.2
2018-06-01T05:09:12.189Z,980.1
2018-06-01T05:10:18.602Z,980.1
2018-06-01T05:11:19.768Z,980.1
2018-06-01T05:12:20.936Z,980
2018-06-01T05:13:22.095Z,980
2018-06-01T05:14:23.323Z,980
2018-06-01T05:15:24.483Z,980
2018-06-01T05:16:25.945Z,980
2018-06-01T05:17:27.224Z,980
2018-06-01T05:18:28.450Z,979.9
2018-06-01T05:19:49.611Z,979.9
2018-06-01T05:20:50.904Z,980
2018-06-01T05:21:52.093Z,980
2018-06-01T05:22:53.312Z,980
2018-06-01T05:23:54.470Z,979.9
2018-06-01T05:24:55.717Z,979.8
2018-06-01T05:25:56.962Z,979.9
2018-06-01T05:26:58.181Z,979.9
2018-06-01T05:27:59.373Z,980.1
2018-06-01T05:29:05.777Z,980
2018-06-01T05:30:07.076Z,980.1
2018-06-01T05:31:08.375Z,980.2
2018-06-01T05:32:15.021Z,980
2018-06-01T05:33:16.209Z,980.4
2018-06-01T05:34:17.653Z,980.2
2018-06-01T05:35:18.904Z,980.2
2018-06-01T05:36:24.001Z,980.1
2018-06-01T05:37:25.208Z,980.2
2018-06-01T05:38:26.462Z,980.4
2018-06-01T05:39:27.743Z,980.3
2018-06-01T05:40:29.268Z,980.4
2018-06-01T05:41:30.510Z,980.2
2018-06-01T05:42:31.701Z,980.3
2018-06-01T05:43:32.917Z,980.3
2018-06-01T05:44:34.169Z,980.4
2018-06-01T05:45:35.649Z,980.5
2018-06-01T05:46:36.875Z,980.2
2018-06-01T05:47:38.091Z,980.4
2018-06-01T05:48:39.391Z,980.3
2018-06-01T05:49:40.584Z,980.3
2018-06-01T05:50:41.808Z,980.4
2018-06-01T05:51:43.079Z,980.4
2018-06-01T05:52:45.841Z,980.2
2018-06-01T05:53:47.050Z,980.2
2018-06-01T05:54:48.271Z,980.2
2018-06-01T05:55:49.487Z,980.2
2018-06-01T05:56:50.692Z,980.4
2018-06-01T05:57:51.906Z,980.3
2018-06-01T05:58:53.100Z,980.5
2018-06-01T05:59:54.307Z,980.6
2018-06-01T06:00:55.560Z,980.2
2018-06-01T06:01:56.744Z,980.2
2018-06-01T06:02:57.955Z,980.3
2018-06-01T06:03:59.140Z,980.2
2018-06-01T06:05:00.307Z,980.3
2018-06-01T06:06:01.519Z,980.3
2018-06-01T06:07:02.689Z,980.4
2018-06-01T06:08:03.882Z,980.3
2018-06-01T06:09:05.075Z,980.2
2018-06-01T06:10:06.271Z,980.5
2018-06-01T06:11:07.523Z,980.4
2018-06-01T06:12:08.707Z,980.2
2018-06-01T06:13:09.928Z,980.2
2018-06-01T06:14:11.115Z,980.3
2018-06-01T06:15:12.407Z,980.3
2018-06-01T06:16:24.475Z,980.4
2018-06-01T06:17:25.721Z,980.2
2018-06-01T06:18:26.934Z,980.3
2018-06-01T06:19:28.172Z,980.3
2018-06-01T06:20:29.366Z,980.2
2018-06-01T06:21:30.588Z,980.4
2018-06-01T06:22:31.828Z,980.3
2018-06-01T06:23:39.241Z,980.3
2018-06-01T06:24:40.456Z,980.5
2018-06-01T06:25:41.744Z,980.3
2018-06-01T06:26:42.949Z,980.3
2018-06-01T06:27:44.146Z,980.3
2018-06-01T06:28:45.325Z,980.3
2018-06-01T06:29:46.667Z,980.4
2018-06-01T06:30:47.935Z,980.6
2018-06-01T06:31:49.166Z,980.5
2018-06-01T06:32:50.400Z,980.4
2018-06-01T06:33:51.603Z,980.2
2018-06-01T06:34:52.873Z,980.2
2018-06-01T06:35:54.115Z,980.3
2018-06-01T06:36:55.403Z,980.3
2018-06-01T06:37:56.650Z,980.2
2018-06-01T06:38:57.892Z,980.4
2018-06-01T06:39:59.201Z,980.7
2018-06-01T06:41:00.364Z,980.6
2018-06-01T06:42:01.714Z,980
2018-06-01T06:43:02.938Z,980
2018-06-01T06:44:04.161Z,980.1
2018-06-01T06:45:05.388Z,980.3
2018-06-01T06:46:06.608Z,980.2
2018-06-01T06:47:08.243Z,980.2
2018-06-01T06:48:09.457Z,980.1
2018-06-01T06:49:11.920Z,979.9
2018-06-01T06:50:13.891Z,980.1
2018-06-01T06:51:23.669Z,980.2
2018-06-01T06:52:25.331Z,980.3
2018-06-01T06:53:26.528Z,980.3
2018-06-01T06:54:27.867Z,980.3
2018-06-01T06:55:29.145Z,980.1
2018-06-01T06:56:30.386Z,980.1
2018-06-01T06:57:31.777Z,980.4
2018-06-01T06:58:33.075Z,980.5
2018-06-01T06:59:34.274Z,980.5
2018-06-01T07:00:35.563Z,980.6
2018-06-01T07:01:36.748Z,980.6
2018-06-01T07:02:38.013Z,980.5
2018-06-01T07:03:39.297Z,980.4
2018-06-01T07:04:40.486Z,980.4
2018-06-01T07:05:41.712Z,980.1
2018-06-01T07:06:42.937Z,980.5
2018-06-01T07:07:44.179Z,980.1
2018-06-01T07:08:45.409Z,980.1
2018-06-01T07:09:46.650Z,980.2
2018-06-01T07:10:47.901Z,980.2
2018-06-01T07:11:49.329Z,980.2
2018-06-01T07:12:50.629Z,980.2
2018-06-01T07:13:51.926Z,980.5
2018-06-01T07:14:53.269Z,980.3
2018-06-01T07:15:54.559Z,980.2
2018-06-01T07:16:55.771Z,980.3
2018-06-01T07:17:57.027Z,980.1
2018-06-01T07:18:58.304Z,980.7
2018-06-01T07:19:59.506Z,980.5
2018-06-01T07:21:00.696Z,980.5
2018-06-01T07:22:04.355Z,980.4
2018-06-01T07:23:05.799Z,980.3
2018-06-01T07:24:07.204Z,980.2
2018-06-01T07:25:09.894Z,980.4
2018-06-01T07:26:11.143Z,980.5
2018-06-01T07:27:14.771Z,980.4
2018-06-01T07:28:16.134Z,980.7
2018-06-01T07:29:17.535Z,980.8
2018-06-01T07:30:18.748Z,980.9
2018-06-01T07:31:20.151Z,980.8
2018-06-01T07:32:21.417Z,980.8
2018-06-01T07:33:22.742Z,980.9
2018-06-01T07:34:23.956Z,981
2018-06-01T07:35:25.184Z,980.9
2018-06-01T07:36:26.486Z,980.9
2018-06-01T07:37:27.696Z,981
2018-06-01T07:38:29.128Z,981
2018-06-01T07:39:30.607Z,980.8
2018-06-01T07:40:31.918Z,980.7
2018-06-01T07:41:33.292Z,980.8
2018-06-01T07:42:34.652Z,980.8
2018-06-01T07:43:36.244Z,980.9
2018-06-01T07:44:37.527Z,980.9
2018-06-01T07:45:38.711Z,981
2018-06-01T07:46:39.935Z,981
2018-06-01T07:47:41.155Z,981
2018-06-01T07:48:42.503Z,981
2018-06-01T07:49:43.699Z,980.9
2018-06-01T07:50:44.921Z,980.9
2018-06-01T07:51:46.264Z,980.8
2018-06-01T07:52:47.508Z,981.1
2018-06-01T07:53:48.925Z,981.1
2018-06-01T07:54:50.180Z,981
2018-06-01T07:55:51.404Z,981
2018-06-01T07:56:52.612Z,981
2018-06-01T07:57:53.825Z,980.8
2018-06-01T07:58:55.109Z,980.8
2018-06-01T07:59:56.311Z,980.9
2018-06-01T08:00:57.490Z,981
2018-06-01T08:01:58.809Z,981
2018-06-01T08:03:00.100Z,981.1
2018-06-01T08:04:01.462Z,981.2
2018-06-01T08:05:02.680Z,981
2018-06-01T08:06:03.971Z,980.9
2018-06-01T08:07:05.226Z,980.9
2018-06-01T08:08:06.558Z,980.9
2018-06-01T08:09:07.862Z,980.8
2018-06-01T08:10:09.231Z,981
2018-06-01T08:11:10.470Z,980.9
2018-06-01T08:12:11.848Z,981
2018-06-01T08:13:13.189Z,981
2018-06-01T08:14:14.476Z,980.9
2018-06-01T08:15:15.708Z,981.1
2018-06-01T08:16:16.974Z,981
2018-06-01T08:17:18.302Z,981.1
2018-06-01T08:18:22.347Z,981.1
2018-06-01T08:19:23.962Z,981.2
2018-06-01T08:20:25.585Z,981.1
2018-06-01T08:21:26.877Z,981.1
2018-06-01T08:22:28.108Z,981
2018-06-01T08:23:29.376Z,981
2018-06-01T08:24:30.632Z,981
2018-06-01T08:25:42.470Z,981.2
2018-06-01T08:26:43.682Z,981.2
2018-06-01T08:27:44.897Z,981.1
2018-06-01T08:28:46.163Z,981
2018-06-01T08:29:47.465Z,981
2018-06-01T08:30:49.261Z,981.1
2018-06-01T08:31:50.519Z,981
2018-06-01T08:33:02.717Z,981.1
2018-06-01T08:34:04.891Z,981.1
2018-06-01T08:35:09.710Z,981.1
2018-06-01T08:36:11.827Z,981.1
2018-06-01T08:37:15.829Z,981.1
2018-06-01T08:38:17.243Z,981.1
2018-06-01T08:39:18.583Z,981.1
2018-06-01T08:40:22.684Z,981
2018-06-01T08:41:23.945Z,980.9
2018-06-01T08:42:25.227Z,980.9
2018-06-01T08:43:26.488Z,981
2018-06-01T08:44:27.712Z,981
2018-06-01T08:45:28.984Z,981
2018-06-01T08:46:30.503Z,981.1
2018-06-01T08:47:31.808Z,981
2018-06-01T08:48:33.053Z,981
2018-06-01T08:49:34.295Z,981
2018-06-01T08:50:35.790Z,980.9
2018-06-01T08:51:37.007Z,980.9
2018-06-01T08:52:38.285Z,980.9
2018-06-01T08:53:39.669Z,980.9
2018-06-01T08:54:43.768Z,980.9
2018-06-01T08:55:49.281Z,980.7
2018-06-01T08:56:50.655Z,980.7
2018-06-01T08:57:54.347Z,980.8
2018-06-01T08:58:55.688Z,980.7
2018-06-01T08:59:56.905Z,980.9
2018-06-01T09:00:58.313Z,980.9
2018-06-01T09:02:00.123Z,980.8
2018-06-01T09:03:01.541Z,980.8
2018-06-01T09:04:02.728Z,980.8
2018-06-01T09:05:06.530Z,980.8
2018-06-01T09:06:08.137Z,980.8
2018-06-01T09:07:09.626Z,980.9
2018-06-01T09:08:10.917Z,980.7
2018-06-01T09:09:12.308Z,980.8
2018-06-01T09:10:17.152Z,980.8
2018-06-01T09:11:18.397Z,980.8
2018-06-01T09:12:19.685Z,980.7
2018-06-01T09:13:20.982Z,980.6
2018-06-01T09:14:22.211Z,980.6
2018-06-01T09:15:23.704Z,980.6
2018-06-01T09:16:29.349Z,980.6
2018-06-01T09:17:30.889Z,980.6
2018-06-01T09:18:32.385Z,980.8
2018-06-01T09:19:33.701Z,980.7
2018-06-01T09:20:34.909Z,980.7
2018-06-01T09:21:36.358Z,980.6
2018-06-01T09:22:37.742Z,980.6
2018-06-01T09:23:39.191Z,980.5
2018-06-01T09:24:40.487Z,980.6
2018-06-01T09:25:41.743Z,980.6
2018-06-01T09:26:43.076Z,980.5
2018-06-01T09:27:49.920Z,980.6
2018-06-01T09:28:51.525Z,980.5
2018-06-01T09:29:55.799Z,980.4
2018-06-01T09:31:06.192Z,980.4
2018-06-01T09:32:07.873Z,980.4
2018-06-01T09:33:09.350Z,980.3
2018-06-01T09:34:11.637Z,980.2
2018-06-01T09:35:12.972Z,980.4
2018-06-01T09:36:14.224Z,980.3
2018-06-01T09:37:32.548Z,980.2
2018-06-01T09:38:35.405Z,980.3
2018-06-01T09:39:39.636Z,980.3
2018-06-01T09:40:41.633Z,980.3
2018-06-01T09:41:42.977Z,980.3
2018-06-01T09:42:44.365Z,980.5
2018-06-01T09:43:45.576Z,980.3
2018-06-01T09:44:47.081Z,980.2
2018-06-01T09:45:48.471Z,980.3
2018-06-01T09:46:49.857Z,980.3
2018-06-01T09:47:51.328Z,980.4
2018-06-01T09:48:54.377Z,980.4
2018-06-01T09:49:56.502Z,980.4
2018-06-01T09:50:58.200Z,980.4
2018-06-01T09:51:59.936Z,980.4
2018-06-01T09:53:01.389Z,980.4
2018-06-01T09:54:02.717Z,980.3
2018-06-01T09:55:04.229Z,980.2
2018-06-01T09:56:16.723Z,980.2
2018-06-01T09:57:18.268Z,980.4
2018-06-01T09:58:19.976Z,980.5
2018-06-01T09:59:22.786Z,980.3
2018-06-01T10:00:24.424Z,980.4
2018-06-01T10:01:25.926Z,980.3
2018-06-01T10:02:27.723Z,980.4
2018-06-01T10:03:29.996Z,980.4
2018-06-01T10:04:32.958Z,980.4
2018-06-01T10:05:36.549Z,980.5
2018-06-01T10:06:37.811Z,980.5
2018-06-01T10:07:39.171Z,980.6
2018-06-01T10:08:40.445Z,980.6
2018-06-01T10:09:41.861Z,980.3
2018-06-01T10:10:46.108Z,980.5
2018-06-01T10:11:47.339Z,980.4
2018-06-01T10:12:48.884Z,980.5
2018-06-01T10:13:50.406Z,980.3
2018-06-01T10:14:51.610Z,980.4
2018-06-01T10:15:52.870Z,980.3
2018-06-01T10:16:54.085Z,980.3
2018-06-01T10:17:55.480Z,980.2
2018-06-01T10:18:56.836Z,980.1
2018-06-01T10:19:58.220Z,980.1
2018-06-01T10:20:59.429Z,980.2
2018-06-01T10:22:00.880Z,980.3
2018-06-01T10:23:02.276Z,980.1
2018-06-01T10:24:03.580Z,980.2
2018-06-01T10:25:04.951Z,980.3
2018-06-01T10:26:06.256Z,980.3
2018-06-01T10:27:08.648Z,980.2
2018-06-01T10:28:13.057Z,980.4
2018-06-01T10:29:14.571Z,980.5
2018-06-01T10:30:16.555Z,980.6
2018-06-01T10:31:25.101Z,980.4
2018-06-01T10:32:30.976Z,980.6
2018-06-01T10:33:32.232Z,980.7
2018-06-01T10:34:33.618Z,980.7
2018-06-01T10:35:35.687Z,980.8
2018-06-01T10:36:36.886Z,980.8
2018-06-01T10:37:38.159Z,980.5
2018-06-01T10:38:39.760Z,980.5
2018-06-01T10:39:41.478Z,980.6
2018-06-01T10:40:42.830Z,980.7
2018-06-01T10:41:44.379Z,980.6
2018-06-01T10:42:45.673Z,980.7
2018-06-01T10:43:52.978Z,980.7
2018-06-01T10:44:58.249Z,980.8
2018-06-01T10:45:59.654Z,980.7
2018-06-01T10:47:01.030Z,980.9
2018-06-01T10:48:02.352Z,980.8
2018-06-01T10:49:03.628Z,980.8
2018-06-01T10:50:05.981Z,980.7
2018-06-01T10:51:07.204Z,980.8
2018-06-01T10:52:08.400Z,980.6
2018-06-01T10:53:09.820Z,980.9
2018-06-01T10:54:11.233Z,980.7
2018-06-01T10:55:14.109Z,980.6
2018-06-01T10:56:15.327Z,980.6
2018-06-01T10:57:16.788Z,980.7
2018-06-01T10:58:18.073Z,980.7
2018-06-01T10:59:19.589Z,980.6
2018-06-01T11:00:23.030Z,980.8
2018-06-01T11:01:24.621Z,980.8
2018-06-01T11:02:25.825Z,980.9
2018-06-01T11:03:27.097Z,981
2018-06-01T11:04:28.725Z,980.9
2018-06-01T11:05:30.169Z,981
2018-06-01T11:06:31.401Z,980.9
2018-06-01T11:07:32.754Z,981.1
2018-06-01T11:08:34.004Z,981.1
2018-06-01T11:09:35.381Z,981
2018-06-01T11:10:36.820Z,981.2
2018-06-01T11:11:40.605Z,981.1
2018-06-01T11:12:47.044Z,981
2018-06-01T11:13:48.665Z,980.9
2018-06-01T11:14:50.057Z,981
2018-06-01T11:15:51.656Z,981.1
2018-06-01T11:16:52.921Z,981.1
2018-06-01T11:17:54.135Z,981.2
2018-06-01T11:18:55.376Z,981.2
2018-06-01T11:19:56.639Z,981.2
2018-06-01T11:20:57.983Z,981.1
2018-06-01T11:21:59.377Z,981
2018-06-01T11:23:01.281Z,981.1
2018-06-01T11:24:02.539Z,981.1
2018-06-01T11:25:03.755Z,981
2018-06-01T11:26:05.171Z,981
2018-06-01T11:27:07.840Z,981
2018-06-01T11:28:10.298Z,981.1
2018-06-01T11:29:11.576Z,981
2018-06-01T11:30:12.930Z,980.9
2018-06-01T11:31:14.261Z,981
2018-06-01T11:32:15.480Z,981.1
2018-06-01T11:33:16.654Z,981.1
2018-06-01T11:34:18.093Z,981
2018-06-01T11:35:19.483Z,981
2018-06-01T11:36:20.910Z,981
2018-06-01T11:37:22.203Z,981
2018-06-01T11:38:25.210Z,981.1
2018-06-01T11:39:33.455Z,981.1
2018-06-01T11:40:37.119Z,981.1
2018-06-01T11:41:38.861Z,981.1
2018-06-01T11:42:42.885Z,981
2018-06-01T11:43:44.288Z,981
2018-06-01T11:44:45.563Z,981
2018-06-01T11:45:46.872Z,981
2018-06-01T11:46:48.183Z,981
2018-06-01T11:47:49.432Z,981
2018-06-01T11:48:50.893Z,980.9
2018-06-01T11:49:52.103Z,980.9
2018-06-01T11:50:53.473Z,980.9
2018-06-01T11:51:54.887Z,980.9
2018-06-01T11:52:56.084Z,980.9
2018-06-01T11:53:57.575Z,980.9
2018-06-01T11:54:58.758Z,980.9
2018-06-01T11:56:03.103Z,980.9
2018-06-01T11:57:04.623Z,980.7
2018-06-01T11:58:06.027Z,980.7
2018-06-01T11:59:07.254Z,980.7
2018-06-01T12:00:08.519Z,980.7
2018-06-01T12:01:11.726Z,980.7
2018-06-01T12:02:14.246Z,980.7
2018-06-01T12:03:15.470Z,980.7
2018-06-01T12:04:16.703Z,980.6
2018-06-01T12:05:20.805Z,980.7
2018-06-01T12:06:24.147Z,980.5
2018-06-01T12:07:30.273Z,980.6
2018-06-01T12:08:31.600Z,980.6
2018-06-01T12:09:33.200Z,980.5
2018-06-01T12:10:34.662Z,980.5
2018-06-01T12:11:36.219Z,980.5
2018-06-01T12:12:37.992Z,980.5
2018-06-01T12:13:39.529Z,980.6
2018-06-01T12:14:40.976Z,980.4
2018-06-01T12:15:42.299Z,980.6
2018-06-01T12:16:43.503Z,980.7
2018-06-01T12:17:44.991Z,980.7
2018-06-01T12:18:46.382Z,980.7
2018-06-01T12:19:47.713Z,980.7
2018-06-01T12:20:49.095Z,980.7
2018-06-01T12:21:50.551Z,980.7
2018-06-01T12:22:51.981Z,980.7
2018-06-01T12:23:53.231Z,980.5
2018-06-01T12:24:54.724Z,980.7
2018-06-01T12:25:57.322Z,980.6
2018-06-01T12:26:59.070Z,980.5
2018-06-01T12:28:00.877Z,980.5
2018-06-01T12:29:02.193Z,980.6
2018-06-01T12:30:03.603Z,980.6
2018-06-01T12:31:05.148Z,980.7
2018-06-01T12:32:08.233Z,980.5
2018-06-01T12:33:09.968Z,980.7
2018-06-01T12:34:15.060Z,980.7
2018-06-01T12:35:16.370Z,980.6
2018-06-01T12:36:17.615Z,980.7
2018-06-01T12:37:18.857Z,980.5
2018-06-01T12:38:22.887Z,980.7
2018-06-01T12:39:29.055Z,980.6
2018-06-01T12:40:30.427Z,980.6
2018-06-01T12:41:31.715Z,980.6
2018-06-01T12:42:33.191Z,980.5
2018-06-01T12:43:34.493Z,980.5
2018-06-01T12:44:35.937Z,980.4
2018-06-01T12:45:38.195Z,980.5
2018-06-01T12:46:39.476Z,980.5
2018-06-01T12:47:40.788Z,980.7
2018-06-01T12:48:42.091Z,980.6
2018-06-01T12:49:43.341Z,980.7
2018-06-01T12:50:44.651Z,980.6
2018-06-01T12:51:46.140Z,980.6
2018-06-01T12:52:47.416Z,980.6
2018-06-01T12:53:48.833Z,980.5
2018-06-01T12:54:51.613Z,980.5
2018-06-01T12:55:52.969Z,980.4
2018-06-01T12:56:54.279Z,980.4
2018-06-01T12:57:55.494Z,980.3
2018-06-01T12:58:57.087Z,980.6
2018-06-01T12:59:58.327Z,980.5
2018-06-01T13:00:59.711Z,980.5
2018-06-01T13:02:01.351Z,980.5
2018-06-01T13:03:02.558Z,980.5
2018-06-01T13:04:03.831Z,980.4
2018-06-01T13:05:05.169Z,980.3
2018-06-01T13:06:06.536Z,980.4
2018-06-01T13:07:07.880Z,980.4
2018-06-01T13:08:09.103Z,980.3
2018-06-01T13:09:10.379Z,980.3
2018-06-01T13:10:11.628Z,980.3
2018-06-01T13:11:12.971Z,980.3
2018-06-01T13:12:14.270Z,980.2
2018-06-01T13:13:21.054Z,980.1
2018-06-01T13:14:22.710Z,980.3
2018-06-01T13:15:27.001Z,980.3
2018-06-01T13:16:28.253Z,980.3
2018-06-01T13:17:29.689Z,980.4
2018-06-01T13:18:31.008Z,980.5
2018-06-01T13:19:32.305Z,980.3
2018-06-01T13:20:33.617Z,980.1
2018-06-01T13:21:35.074Z,980.2
2018-06-01T13:22:36.294Z,980.1